Time;durP1;ratioP1;P1;durP2;ratioP2;P2;SDS_P1;SDS_P2;PMS_P1;PMS_P2;Temp;Humidity;BMP_temperature;BMP_pressure;BME280_temperature;BME280_humidity;BME280_pressure;Samples;Min_cycle;Max_cycle;Signal;HPM_P1;HPM_P2
2022/08/07 00:04:43;;;;;;;0.10;0.10;;;;;;;-145.16;100.00;78896.40;653690;218;34633;-71
2022/08/07 00:10:43;;;;;;;0.10;0.10;;;;;;;-145.16;100.00;78883.30;653669;217;33332;-71
2022/08/07 00:16:42;;;;;;;0.10;0.10;;;;;;;-145.16;100.00;78887.33;645170;217;43395;-71
2022/08/07 00:22:41;;;;;;;0.00;0.00;;;;;;;-145.16;100.00;78880.28;653684;217;34298;-71
2022/08/07 00:28:43;;;;;;;0.10;0.10;;;;;;;-145.16;100.00;78876.25;645050;218;33291;-71
2022/08/07 00:34:42;;;;;;;0.10;0.10;;;;;;;-145.16;100.00;78889.34;645239;217;35313;-71
2022/08/07 00:40:41;;;;;;;0.00;0.00;;;;;;;-145.16;100.00;78897.41;645171;217;32378;-71
2022/08/07 00:46:41;;;;;;;0.10;0.10;;;;;;;-145.16;100.00;78934.67;645192;217;35292;-71
2022/08/07 00:52:40;;;;;;;0.10;0.10;;;;;;;-145.16;100.00;78914.53;653674;218;34625;-70
2022/08/07 00:58:42;;;;;;;0.10;0.10;;;;;;;-145.16;100.00;78915.53;645096;217;34324;-71
2022/08/07 01:04:41;;;;;;;0.10;0.10;;;;;;;-145.16;100.00;78922.58;645182;217;33370;-71
2022/08/07 01:10:42;;;;;;;0.10;0.10;;;;;;;-145.16;100.00;78926.61;645178;217;32412;-71
2022/08/07 01:16:41;;;;;;;0.10;0.10;;;;;;;-145.16;100.00;78935.67;645202;218;32381;-70
2022/08/07 01:22:42;;;;;;;0.10;0.10;;;;;;;-145.16;100.00;78974.95;645065;217;32421;-71
2022/08/07 01:28:41;;;;;;;0.40;0.40;;;;;;;-145.16;100.00;78974.95;653695;217;32381;-71
2022/08/07 01:34:44;;;;;;;0.10;0.10;;;;;;;-145.16;100.00;78981.00;653671;217;32411;-71
2022/08/07 01:40:44;;;;;;;0.10;0.10;;;;;;;-145.16;100.00;78986.04;645046;217;34367;-71
2022/08/07 01:46:43;;;;;;;0.10;0.10;;;;;;;-145.16;100.00;78994.09;645246;217;35294;-71
2022/08/07 01:52:42;;;;;;;0.00;0.00;;;;;;;-145.16;100.00;78991.08;645197;217;32447;-71
2022/08/07 01:58:42;;;;;;;0.00;0.00;;;;;;;-145.16;100.00;79013.23;645177;217;33336;-71
2022/08/07 02:04:41;;;;;;;0.00;0.00;;;;;;;-145.16;100.00;78925.61;653690;217;32358;-71
2022/08/07 02:10:41;;;;;;;0.10;0.10;;;;;;;-145.16;100.00;78905.46;653674;217;32389;-71
2022/08/07 02:16:40;;;;;;;0.10;0.10;;;;;;;-145.16;100.00;78950.78;645171;217;32423;-71
2022/08/07 02:22:41;;;;;;;0.20;0.20;;;;;;;-145.16;100.00;78948.77;653647;216;33346;-71
2022/08/07 02:28:41;;;;;;;0.10;0.10;;;;;;;-145.16;100.00;78922.58;645184;217;33398;-71
2022/08/07 02:34:40;;;;;;;0.10;0.10;;;;;;;-145.16;100.00;78962.88;645179;217;32367;-71
2022/08/07 02:40:40;;;;;;;0.10;0.10;;;;;;;-145.16;100.00;78961.86;645166;217;34336;-71
2022/08/07 02:46:39;;;;;;;0.00;0.00;;;;;;;-145.16;100.00;78933.66;653700;217;33314;-71
2022/08/07 02:52:39;;;;;;;0.10;0.10;;;;;;;-145.16;100.00;78985.03;645170;217;32396;-71
2022/08/07 02:58:40;;;;;;;0.10;0.10;;;;;;;-145.16;100.00;79013.23;645037;217;34335;-71
2022/08/07 03:04:39;;;;;;;0.00;0.00;;;;;;;-145.16;100.00;78963.88;653676;218;33351;-71
2022/08/07 03:10:39;;;;;;;0.80;0.80;;;;;;;-145.16;100.00;78987.05;653757;217;34642;-71
2022/08/07 03:16:38;;;;;;;0.10;0.10;;;;;;;-145.16;100.00;78989.06;653699;217;32389;-71
2022/08/07 03:22:37;;;;;;;0.10;0.10;;;;;;;-145.16;100.00;79006.18;645245;218;35522;-71
2022/08/07 03:28:36;;;;;;;0.00;0.00;;;;;;;-145.16;100.00;79014.23;653740;217;34363;-71
2022/08/07 03:34:36;;;;;;;0.40;0.40;;;;;;;-145.16;100.00;79022.30;653690;217;32409;-71
2022/08/07 03:40:35;;;;;;;0.15;0.15;;;;;;;-145.16;100.00;79032.37;645179;217;43067;-71
2022/08/07 03:46:34;;;;;;;0.10;0.10;;;;;;;-145.16;100.00;78991.08;645166;217;33371;-71
2022/08/07 03:52:34;;;;;;;0.10;0.10;;;;;;;-145.16;100.00;78999.13;645186;216;32375;-71
2022/08/07 03:58:35;;;;;;;0.10;0.10;;;;;;;-145.16;100.00;79042.44;653672;217;33349;-70
2022/08/07 04:04:36;;;;;;;0.30;0.30;;;;;;;-145.16;100.00;79059.56;645042;217;32374;-71
2022/08/07 04:10:38;;;;;;;0.10;0.10;;;;;;;-145.16;100.00;79041.44;653736;217;34337;-71
2022/08/07 04:16:20;;;;;;;18.30;1.50;;;;;;;;;;645043;217;33353;-71
2022/08/07 04:22:01;;;;;;;0.10;0.10;;;;;;;-145.16;100.00;78920.57;645155;217;33332;-71
2022/08/07 04:28:01;;;;;;;0.10;0.10;;;;;;;-145.16;100.00;78773.53;653666;216;32356;-71
2022/08/07 04:34:01;;;;;;;0.10;0.10;;;;;;;-145.16;100.00;78692.95;653737;217;34303;-71
2022/08/07 04:40:01;;;;;;;0.20;0.20;;;;;;;-145.16;100.00;78680.87;645056;217;34327;-71
2022/08/07 04:46:01;;;;;;;0.90;0.90;;;;;;;-145.16;100.00;78585.20;645188;217;33375;-71
2022/08/07 04:52:00;;;;;;;0.30;0.30;;;;;;;-145.16;100.00;78442.20;645173;217;33345;-72
2022/08/07 04:58:00;;;;;;;0.10;0.10;;;;;;;-145.16;100.00;78117.95;645171;217;32370;-72
2022/08/07 05:04:00;;;;;;;0.15;0.15;;;;;;;-145.16;100.00;77910.52;645189;217;32332;-70
2022/08/07 05:10:00;;;;;;;0.20;0.20;;;;;;;-145.16;100.00;77782.66;645171;217;32367;-71
2022/08/07 05:16:01;;;;;;;0.62;0.62;;;;;;;-145.16;100.00;77933.69;653696;217;32651;-72
2022/08/07 05:22:00;;;;;;;0.55;0.55;;;;;;;-145.16;100.00;77983.02;653693;217;32368;-70
2022/08/07 05:28:00;;;;;;;0.30;0.30;;;;;;;-145.16;100.00;77872.27;645270;217;33569;-70
2022/08/07 05:33:59;;;;;;;0.50;0.50;;;;;;;-145.16;100.00;77696.06;645173;217;32379;-71
2022/08/07 05:39:59;;;;;;;1.50;1.45;;;;;;;-145.16;97.61;77700.09;653688;217;43339;-69
2022/08/07 05:46:01;;;;;;;0.60;0.60;;;;;;;-145.16;96.16;77649.75;645033;217;32313;-72
2022/08/07 05:52:00;;;;;;;1.02;1.02;;;;;;;-145.16;87.62;77324.57;645167;217;32367;-70
2022/08/07 05:57:59;;;;;;;1.50;1.10;;;;;;;-145.16;82.16;77377.92;653694;217;32418;-73
2022/08/07 06:03:59;;;;;;;0.70;0.60;;;;;;;-145.16;83.74;77376.92;645189;217;32328;-71
2022/08/07 06:09:59;;;;;;;0.50;0.50;;;;;;;-145.16;77.69;77113.17;653661;218;32427;-71
2022/08/07 06:15:58;;;;;;;0.80;0.80;;;;;;;-145.16;75.65;77159.48;653686;217;32356;-71
2022/08/07 06:21:59;;;;;;;0.40;0.40;;;;;;;-145.16;69.87;76893.73;645018;217;32366;-71
2022/08/07 06:27:58;;;;;;;0.60;0.60;;;;;;;-145.16;67.58;76653.16;650245;217;43021;-71
2022/08/07 06:33:58;;;;;;;1.27;1.27;;;;;;;-145.16;64.42;77035.66;645147;217;32384;-71
2022/08/07 06:39:59;;;;;;;4.25;2.20;;;;;;;-145.16;60.07;76816.22;645068;217;32396;-70
2022/08/07 06:45:58;;;;;;;0.55;0.55;;;;;;;-145.16;61.79;76755.83;645159;218;32391;-71
2022/08/07 06:51:58;;;;;;;0.80;0.80;;;;;;;-145.16;52.97;76522.32;653684;218;32377;-71
2022/08/07 06:57:57;;;;;;;0.55;0.55;;;;;;;-145.16;53.53;76391.48;653636;217;32356;-72
2022/08/07 07:03:56;;;;;;;1.23;1.12;;;;;;;-145.16;52.32;76525.34;645181;216;32488;-71
2022/08/07 07:09:55;;;;;;;1.75;1.65;;;;;;;-145.16;52.51;76728.66;645177;218;32368;-71
2022/08/07 07:15:55;;;;;;;2.40;2.20;;;;;;;-145.16;55.80;76991.37;645176;217;32325;-71
2022/08/07 07:21:54;;;;;;;2.30;2.10;;;;;;;-145.16;55.79;77007.48;645168;218;32355;-71
2022/08/07 07:27:53;;;;;;;5.68;1.00;;;;;;;-145.16;53.81;76853.47;645164;217;32418;-71
2022/08/07 07:33:54;;;;;;;1.30;1.30;;;;;;;-145.16;51.48;76925.94;659226;218;31250;-71
2022/08/07 07:39:56;;;;;;;1.50;1.10;;;;;;;-145.16;54.41;76966.20;645000;218;32420;-71
2022/08/07 07:45:55;;;;;;;0.90;0.90;;;;;;;-145.16;53.14;76928.95;645183;217;32380;-71
2022/08/07 07:51:54;;;;;;;1.20;1.10;;;;;;;-145.16;54.18;77258.13;645183;217;32388;-71
2022/08/07 07:57:55;;;;;;;0.93;0.93;;;;;;;-145.16;57.11;77308.47;645193;217;32387;-71
2022/08/07 08:03:53;;;;;;;0.70;0.70;;;;;;;-145.16;57.37;77006.47;653700;217;32341;-71
2022/08/07 08:09:54;;;;;;;2.05;1.73;;;;;;;-145.16;54.33;77254.11;645070;217;32371;-71
2022/08/07 08:15:53;;;;;;;0.85;0.85;;;;;;;-145.16;52.90;76911.84;653674;217;32349;-71
2022/08/07 08:28:14;;;;;;;0.70;0.70;;;;;;;-145.16;51.22;76919.91;645072;217;32407;-71
2022/08/07 08:34:13;;;;;;;0.80;0.80;;;;;;;-145.16;48.85;76920.91;645187;218;32320;-71
2022/08/07 08:40:12;;;;;;;1.25;1.12;;;;;;;-145.16;50.35;76900.78;645151;217;32409;-71
2022/08/07 08:46:12;;;;;;;0.90;0.90;;;;;;;-145.16;49.89;76776.97;645148;217;32409;-71
2022/08/07 08:52:11;;;;;;;1.67;1.55;;;;;;;-145.16;46.02;76640.08;645161;217;32323;-71
2022/08/07 08:58:13;;;;;;;0.50;0.50;;;;;;;-145.16;43.40;76231.47;645049;217;32423;-71
2022/08/07 09:04:13;;;;;;;0.43;0.43;;;;;;;-145.16;41.55;76324.05;643806;217;32345;-71
2022/08/07 09:10:12;;;;;;;0.50;0.50;;;;;;;-145.16;43.36;76652.16;653661;218;32371;-70
2022/08/07 09:16:12;;;;;;;0.80;0.80;;;;;;;-145.16;42.79;76600.83;645164;216;32369;-71
2022/08/07 09:22:16;;;;;;;0.68;0.68;;;;;;;-145.16;42.94;76340.16;653700;218;32375;-71
2022/08/07 09:28:18;;;;;;;0.95;0.95;;;;;;;-145.16;43.52;76582.71;645137;217;32378;-71
2022/08/07 09:34:17;;;;;;;0.50;0.50;;;;;;;-145.16;45.16;76694.43;643578;217;36237;-71
2022/08/07 09:40:17;;;;;;;0.50;0.50;;;;;;;-145.16;42.41;76475.02;645174;217;32351;-71
2022/08/07 09:46:17;;;;;;;0.60;0.60;;;;;;;-145.16;41.92;76547.48;653704;217;32307;-71
2022/08/07 09:52:21;;;;;;;1.02;1.02;;;;;;;-145.16;40.66;76637.06;645023;217;32359;-72
2022/08/07 09:58:21;;;;;;;0.60;0.60;;;;;;;-145.16;40.13;76504.20;645172;217;32343;-71
2022/08/07 10:04:23;;;;;;;0.50;0.50;;;;;;;-145.16;38.59;76433.75;645014;217;32421;-71
2022/08/07 10:10:28;;;;;;;1.73;1.62;;;;;;;-145.16;39.71;76644.11;645167;218;43110;-71
2022/08/07 10:16:50;;;;;;;0.60;0.60;;;;;;;-145.16;41.55;76963.19;645154;217;32392;-71
2022/08/07 10:22:49;;;;;;;0.55;0.55;;;;;;;-145.16;39.23;76729.66;645148;218;32355;-71
2022/08/07 10:28:50;;;;;;;0.60;0.60;;;;;;;-145.16;39.89;76782.00;653651;217;32371;-71
2022/08/07 10:34:55;;;;;;;0.57;0.57;;;;;;;-145.16;42.88;76639.08;652360;213;32423;-71
2022/08/07 10:40:55;;;;;;;0.40;0.40;;;;;;;-145.16;39.61;76441.80;653630;217;32357;-71
2022/08/07 10:46:55;;;;;;;0.60;0.60;;;;;;;-145.16;38.59;76422.69;639060;217;32343;-71
2022/08/07 10:52:55;;;;;;;0.52;0.52;;;;;;;-145.16;37.93;76603.84;641247;217;43025;-71
2022/08/07 10:58:55;;;;;;;1.30;1.30;;;;;;;-145.16;38.48;76718.59;653665;217;32364;-71
2022/08/07 11:04:57;;;;;;;1.12;1.05;;;;;;;-145.16;37.84;76534.40;645019;217;32366;-71
2022/08/07 11:10:58;;;;;;;0.70;0.70;;;;;;;-145.16;37.17;76641.09;647128;218;32502;-71
2022/08/07 11:16:56;;;;;;;0.98;0.98;;;;;;;-145.16;40.01;76920.91;645085;217;32436;-71
2022/08/07 11:22:55;;;;;;;0.40;0.40;;;;;;;-145.16;38.56;76577.68;634823;217;32503;-71
2022/08/07 11:28:55;;;;;;;0.70;0.70;;;;;;;-145.16;37.22;76577.68;643985;217;32359;-71
2022/08/07 11:34:56;;;;;;;0.50;0.50;;;;;;;-145.16;37.39;76608.88;640050;218;32578;-71
2022/08/07 11:40:58;;;;;;;0.70;0.70;;;;;;;-145.16;36.91;76811.19;659295;217;28368;-70
2022/08/07 11:46:57;;;;;;;0.50;0.50;;;;;;;-145.16;36.19;76520.31;653673;217;43004;-70
2022/08/07 11:53:02;;;;;;;0.90;0.90;;;;;;;-145.16;37.26;76960.16;653696;217;32291;-70
2022/08/07 11:59:06;;;;;;;0.52;0.52;;;;;;;-145.16;38.25;76939.03;645171;217;32375;-70
2022/08/07 12:05:06;;;;;;;0.40;0.40;;;;;;;-145.16;41.81;77129.28;653692;217;32378;-70
2022/08/07 12:11:07;;;;;;;0.47;0.47;;;;;;;-145.16;41.23;77165.52;645187;217;32298;-70
2022/08/07 12:17:07;;;;;;;0.75;0.75;;;;;;;-145.16;43.48;77284.30;645185;218;32298;-72
2022/08/07 12:23:05;;;;;;;0.57;0.57;;;;;;;-145.16;43.53;77368.87;643805;217;32362;-70
2022/08/07 12:29:05;;;;;;;0.40;0.40;;;;;;;-145.16;43.30;77090.02;645167;217;32358;-70
2022/08/07 12:35:05;;;;;;;0.50;0.50;;;;;;;-145.16;43.10;77016.53;628651;217;32459;-70
2022/08/07 12:41:04;;;;;;;0.40;0.40;;;;;;;-145.16;42.29;76959.16;645178;217;32378;-70
2022/08/07 12:47:03;;;;;;;0.40;0.40;;;;;;;-145.16;43.83;77016.53;645183;216;32357;-70
2022/08/07 12:53:03;;;;;;;0.60;0.55;;;;;;;-145.16;42.63;77027.61;653673;218;32350;-70
2022/08/07 12:59:04;;;;;;;0.65;0.65;;;;;;;-145.16;47.44;77154.44;645189;218;32317;-70
2022/08/07 13:05:06;;;;;;;0.88;0.88;;;;;;;-145.16;44.18;76912.85;645067;218;32321;-70
2022/08/07 13:11:26;;;;;;;0.45;0.45;;;;;;;-145.16;48.65;77234.97;645171;217;32332;-70
2022/08/07 13:17:26;;;;;;;0.60;0.60;;;;;;;-145.16;45.95;77155.45;645172;217;32357;-70
2022/08/07 13:23:26;;;;;;;0.95;0.93;;;;;;;-145.16;46.94;77258.13;653674;217;32372;-70
2022/08/07 13:29:25;;;;;;;0.98;0.98;;;;;;;-145.16;49.36;77123.23;653681;218;32445;-70
2022/08/07 13:35:25;;;;;;;0.60;0.60;;;;;;;-145.16;46.54;76985.33;645180;217;32395;-70
2022/08/07 13:41:25;;;;;;;0.95;0.95;;;;;;;-145.16;46.45;76941.04;653673;217;32347;-70
2022/08/07 13:47:24;;;;;;;0.70;0.70;;;;;;;-145.16;45.68;77015.53;645185;218;32364;-70
2022/08/07 13:53:23;;;;;;;0.70;0.60;;;;;;;-145.16;46.73;76827.30;645172;217;32357;-70
2022/08/07 13:59:25;;;;;;;0.32;0.32;;;;;;;-145.16;48.51;76907.82;642352;217;32496;-70
2022/08/07 14:05:26;;;;;;;0.30;0.30;;;;;;;-145.16;50.80;77119.21;643898;217;32356;-70
2022/08/07 14:11:25;;;;;;;0.40;0.40;;;;;;;-145.16;50.08;77085.99;644618;217;32350;-69
2022/08/07 14:17:25;;;;;;;0.60;0.60;;;;;;;-145.16;47.72;77083.98;645154;217;32394;-69
2022/08/07 14:23:24;;;;;;;0.47;0.47;;;;;;;-145.16;48.31;76868.56;644701;217;32381;-69
2022/08/07 14:29:24;;;;;;;7.75;0.85;;;;;;;-145.16;49.42;77142.36;645192;217;32381;-70
2022/08/07 14:35:23;;;;;;;1.30;0.90;;;;;;;-145.16;52.40;77195.72;645172;217;32396;-69
2022/08/07 14:41:22;;;;;;;1.10;0.70;;;;;;;-145.16;51.96;77145.38;645171;217;43048;-69
2022/08/07 14:47:22;;;;;;;0.50;0.50;;;;;;;-145.16;52.34;77182.63;653686;217;43090;-69
2022/08/07 14:53:22;;;;;;;1.90;1.37;;;;;;;-145.16;53.48;77254.11;645183;217;32372;-69
2022/08/07 14:59:21;;;;;;;0.40;0.40;;;;;;;-145.16;52.87;77214.84;653687;217;32369;-72
2022/08/07 15:05:25;;;;;;;1.30;1.05;;;;;;;-145.16;51.78;77150.42;645189;217;32317;-69
2022/08/07 15:11:24;;;;;;;0.90;0.90;;;;;;;-145.16;52.77;77240.02;645174;217;32420;-72
2022/08/07 15:17:23;;;;;;;2.00;1.30;;;;;;;-145.16;51.26;77324.57;643269;217;43009;-69
2022/08/07 15:23:23;;;;;;;1.10;1.10;;;;;;;-145.16;51.43;77348.73;645153;218;43061;-69
2022/08/07 15:29:22;;;;;;;1.05;1.05;;;;;;;-145.16;51.93;77297.39;645157;217;32741;-69
2022/08/07 15:35:21;;;;;;;0.20;0.20;;;;;;;-145.16;53.70;77182.63;645183;217;32370;-69
2022/08/07 15:41:21;;;;;;;1.10;1.00;;;;;;;-145.16;49.86;77230.95;645167;216;32372;-70
2022/08/07 15:47:20;;;;;;;2.00;0.98;;;;;;;-145.16;50.67;77264.17;653697;217;32375;-69
2022/08/07 15:53:19;;;;;;;1.25;1.15;;;;;;;-145.16;52.20;77240.02;645173;217;32391;-69
2022/08/07 15:59:21;;;;;;;1.42;1.30;;;;;;;-145.16;50.70;77290.34;653659;217;32343;-69
2022/08/07 16:05:20;;;;;;;0.30;0.30;;;;;;;-145.16;51.57;77130.28;653711;217;32295;-69
2022/08/07 16:11:21;;;;;;;1.12;0.93;;;;;;;-145.16;49.23;77141.36;645153;218;32361;-69
2022/08/07 16:17:25;;;;;;;1.62;1.30;;;;;;;-145.16;48.54;77219.88;653671;218;32385;-69
2022/08/07 16:23:30;;;;;;;0.30;0.30;;;;;;;-145.16;52.49;77204.78;645194;218;32352;-69
2022/08/07 16:29:30;;;;;;;0.47;0.47;;;;;;;-145.16;52.97;77211.82;653685;218;32359;-69
2022/08/07 16:35:30;;;;;;;0.60;0.60;;;;;;;-145.16;51.79;77281.28;653655;217;32363;-71
2022/08/07 16:41:34;;;;;;;1.85;1.25;;;;;;;-145.16;54.42;77411.15;645165;218;32423;-69
2022/08/07 16:47:35;;;;;;;1.30;1.20;;;;;;;-145.16;55.12;77414.17;653678;217;32369;-69
2022/08/07 16:54:05;;;;;;;0.93;0.93;;;;;;;-145.16;56.75;77395.04;645166;218;32429;-71
2022/08/07 17:00:05;;;;;;;1.33;0.95;;;;;;;-145.16;57.44;77372.89;653703;218;32307;-69
2022/08/07 17:06:15;;;;;;;0.35;0.35;;;;;;;-145.16;58.97;77392.02;645168;217;32706;-69
2022/08/07 17:12:14;;;;;;;2.53;1.17;;;;;;;-145.16;60.06;77427.26;649910;216;32360;-69
2022/08/07 17:18:15;;;;;;;0.30;0.30;;;;;;;-145.16;62.50;77396.05;643932;218;32321;-69
2022/08/07 17:24:14;;;;;;;1.05;0.98;;;;;;;-145.16;63.30;77429.27;643795;217;32319;-69
2022/08/07 17:30:14;;;;;;;1.52;1.30;;;;;;;-145.16;66.16;77448.40;645157;217;32379;-71
2022/08/07 17:36:14;;;;;;;1.17;1.08;;;;;;;-145.16;68.98;77453.44;645163;218;32992;-71
2022/08/07 17:42:14;;;;;;;1.40;1.30;;;;;;;-145.16;70.02;77464.50;653661;217;32399;-69
2022/08/07 17:48:14;;;;;;;2.58;1.58;;;;;;;-145.16;72.85;77491.69;643512;217;32382;-69
2022/08/07 17:54:13;;;;;;;0.95;0.95;;;;;;;-145.16;74.94;77504.78;645143;217;32460;-71
2022/08/07 18:00:14;;;;;;;0.70;0.70;;;;;;;-145.16;78.47;77531.95;644685;217;32439;-69
2022/08/07 18:06:14;;;;;;;7.20;1.45;;;;;;;-145.16;79.38;77541.02;644996;217;32397;-71
2022/08/07 18:12:15;;;;;;;1.20;1.00;;;;;;;-145.16;82.48;77573.23;645156;217;32717;-71
2022/08/07 18:18:13;;;;;;;3.17;1.37;;;;;;;-145.16;83.49;77577.27;653679;217;32339;-71
2022/08/07 18:24:13;;;;;;;2.83;1.58;;;;;;;-145.16;85.92;77610.48;653689;217;32346;-69
2022/08/07 18:30:38;;;;;;;1.30;1.20;;;;;;;-145.16;89.94;77662.84;653652;214;43149;-71
2022/08/07 18:36:57;;;;;;;1.35;1.10;;;;;;;-145.16;93.81;77679.95;653675;217;32401;-69
2022/08/07 18:43:07;;;;;;;1.75;1.12;;;;;;;-145.16;97.28;77695.06;645043;217;32398;-71
2022/08/07 18:49:09;;;;;;;0.85;0.85;;;;;;;-145.16;99.31;77696.06;645007;218;32358;-71
2022/08/07 18:55:12;;;;;;;0.80;0.80;;;;;;;-145.16;98.40;77716.20;645201;217;43433;-71
2022/08/07 19:01:15;;;;;;;1.35;0.73;;;;;;;-145.16;100.00;77754.46;645168;217;32740;-72
2022/08/07 19:07:15;;;;;;;0.70;0.70;;;;;;;-145.16;100.00;77780.64;653691;217;32321;-69
2022/08/07 19:13:15;;;;;;;3.10;0.90;;;;;;;-145.16;100.00;77831.98;653682;218;32374;-71
2022/08/07 19:19:15;;;;;;;1.52;1.42;;;;;;;-145.16;100.00;77858.16;643584;218;32324;-69
2022/08/07 19:25:16;;;;;;;0.82;0.82;;;;;;;-145.16;100.00;77945.77;645171;217;32447;-69
2022/08/07 19:31:15;;;;;;;0.30;0.30;;;;;;;-145.16;100.00;77969.93;653700;217;32360;-72
2022/08/07 19:37:14;;;;;;;0.20;0.20;;;;;;;-145.16;100.00;77996.11;645157;217;32377;-71
2022/08/07 19:43:13;;;;;;;0.20;0.20;;;;;;;-145.16;100.00;78030.34;645175;217;32712;-71
2022/08/07 19:49:13;;;;;;;0.10;0.10;;;;;;;-145.16;100.00;78030.34;645175;217;43085;-69
2022/08/07 19:55:15;;;;;;;1.20;1.10;;;;;;;-145.16;100.00;78044.44;653745;217;33908;-69
2022/08/07 20:01:16;;;;;;;0.50;0.50;;;;;;;-145.16;100.00;78066.59;645168;217;32382;-71
2022/08/07 20:07:14;;;;;;;0.45;0.45;;;;;;;-145.16;100.00;78086.73;643370;217;32554;-71
2022/08/07 20:13:13;;;;;;;0.30;0.30;;;;;;;-145.16;100.00;78121.97;645142;216;43081;-71
2022/08/07 20:19:15;;;;;;;0.20;0.20;;;;;;;-145.16;100.00;78136.07;653698;217;32318;-71
2022/08/07 20:25:13;;;;;;;0.90;0.90;;;;;;;-145.16;100.00;78164.27;653661;217;43401;-69
2022/08/07 20:31:14;;;;;;;0.10;0.10;;;;;;;-145.16;100.00;78171.31;645108;217;34276;-71
2022/08/07 20:37:18;;;;;;;0.20;0.20;;;;;;;-145.16;100.00;78186.42;645017;217;32403;-71
2022/08/07 20:43:23;;;;;;;0.17;0.17;;;;;;;-145.16;100.00;78207.56;653684;217;32328;-69
2022/08/07 20:49:23;;;;;;;0.10;0.10;;;;;;;-145.16;100.00;78228.71;643997;217;34362;-69
2022/08/07 20:55:19;;;;;;;0.30;0.30;;;;;;;-145.16;100.00;78247.84;644231;217;32314;-71
2022/08/07 21:01:21;;;;;;;0.50;0.50;;;;;;;-145.16;100.00;78301.22;641659;217;32564;-71
2022/08/07 21:07:22;;;;;;;0.50;0.50;;;;;;;-145.16;100.00;78327.40;651632;218;32898;-71
2022/08/07 21:13:22;;;;;;;0.20;0.20;;;;;;;-145.16;100.00;78304.23;645158;217;32414;-71
2022/08/07 21:19:22;;;;;;;0.20;0.20;;;;;;;-145.16;100.00;78277.05;633199;216;32938;-71
2022/08/07 21:25:22;;;;;;;0.28;0.28;;;;;;;-145.16;100.00;78309.27;645189;217;32375;-71
2022/08/07 21:31:21;;;;;;;0.20;0.20;;;;;;;-145.16;100.00;78308.27;653741;218;34299;-72
2022/08/07 21:37:21;;;;;;;0.20;0.20;;;;;;;-145.16;100.00;78354.59;645179;217;32635;-71
2022/08/07 21:43:21;;;;;;;0.90;0.90;;;;;;;-145.16;100.00;78422.05;645166;217;32396;-70
2022/08/07 21:49:24;;;;;;;1.00;0.80;;;;;;;-145.16;100.00;78405.94;653677;217;32439;-71
2022/08/07 21:55:26;;;;;;;0.10;0.10;;;;;;;-145.16;100.00;78382.78;645016;217;32389;-71
2022/08/07 22:01:26;;;;;;;0.25;0.25;;;;;;;-145.16;100.00;78437.16;645192;218;32378;-72
2022/08/07 22:07:25;;;;;;;4.07;2.03;;;;;;;-145.16;100.00;78464.34;645205;217;32323;-71
2022/08/07 22:13:24;;;;;;;0.10;0.10;;;;;;;-145.16;100.00;78472.41;645182;218;33351;-71
2022/08/07 22:19:26;;;;;;;0.60;0.60;;;;;;;-145.16;100.00;78500.60;645175;217;32370;-71
2022/08/07 22:25:09;;;;;;;0.40;0.40;;;;;;;;;;645170;217;32649;-71
2022/08/07 22:30:47;;;;;;;0.50;0.50;;;;;;;-145.16;100.00;78449.24;653775;217;33273;-71
2022/08/07 22:36:47;;;;;;;0.70;0.70;;;;;;;-145.16;100.00;78463.34;645189;218;32341;-71
2022/08/07 22:42:47;;;;;;;0.22;0.22;;;;;;;-145.16;100.00;78462.34;645274;217;35262;-71
2022/08/07 22:48:49;;;;;;;0.80;0.80;;;;;;;-145.16;100.00;78481.47;645068;217;34264;-71
2022/08/07 22:54:57;;;;;;;0.17;0.17;;;;;;;-145.16;100.00;78460.32;645165;217;32368;-71
2022/08/07 23:01:04;;;;;;;0.15;0.15;;;;;;;-145.16;100.00;78464.34;645181;217;32658;-71
2022/08/07 23:07:03;;;;;;;0.10;0.10;;;;;;;-145.16;100.00;78470.39;645171;217;32363;-71
2022/08/07 23:13:04;;;;;;;0.10;0.10;;;;;;;-145.16;100.00;78500.60;645120;217;42103;-71
2022/08/07 23:25:31;;;;;;;0.20;0.20;;;;;;;-145.16;100.00;78561.03;653679;217;53807;-70
2022/08/07 23:31:40;;;;;;;0.30;0.30;;;;;;;-145.16;100.00;78590.23;653684;218;32646;-71
2022/08/07 23:37:43;;;;;;;0.20;0.20;;;;;;;-145.16;100.00;78588.22;645177;217;34344;-71
2022/08/07 23:43:44;;;;;;;1.30;1.30;;;;;;;-145.16;100.00;78585.20;645190;218;32635;-71
2022/08/07 23:49:45;;;;;;;0.10;0.10;;;;;;;-145.16;100.00;78628.50;653702;217;32344;-71
2022/08/07 23:55:44;;;;;;;0.20;0.20;;;;;;;-145.16;100.00;78633.54;653689;217;32354;-71
